createdAt,value
2019-03-23T00:00:19.291Z,84.60
2019-03-23T00:02:45.454Z,84.20
2019-03-23T00:05:11.953Z,84.10
2019-03-23T00:07:38.240Z,84.00
2019-03-23T00:10:05.803Z,83.90
2019-03-23T00:12:32.980Z,84.00
2019-03-23T00:14:59.155Z,84.70
2019-03-23T00:17:25.315Z,83.50
2019-03-23T00:19:51.488Z,83.60
2019-03-23T00:22:17.679Z,83.50
2019-03-23T00:24:43.852Z,83.60
2019-03-23T00:27:10.019Z,83.40
2019-03-23T00:29:36.200Z,83.30
2019-03-23T00:32:02.547Z,84.00
2019-03-23T00:34:28.722Z,84.00
2019-03-23T00:36:54.927Z,84.00
2019-03-23T00:39:21.135Z,84.30
2019-03-23T00:41:47.312Z,84.50
2019-03-23T00:44:13.467Z,84.40
2019-03-23T00:46:39.655Z,84.30
2019-03-23T00:49:05.812Z,84.30
2019-03-23T00:51:31.976Z,84.60
2019-03-23T00:53:58.199Z,84.70
2019-03-23T00:56:24.371Z,84.90
2019-03-23T00:58:50.527Z,84.90
2019-03-23T01:01:16.891Z,84.50
2019-03-23T01:03:43.161Z,84.40
2019-03-23T01:06:09.327Z,84.70
2019-03-23T01:08:35.498Z,85.30
2019-03-23T01:11:01.679Z,85.70
2019-03-23T01:13:27.846Z,85.10
2019-03-23T01:15:54.017Z,85.40
2019-03-23T01:18:20.176Z,86.10
2019-03-23T01:20:49.957Z,85.90
2019-03-23T01:23:14.432Z,85.90
2019-03-23T01:25:40.604Z,85.80
2019-03-23T01:28:06.781Z,86.00
2019-03-23T01:30:34.861Z,86.20
2019-03-23T01:33:01.031Z,86.70
2019-03-23T01:35:27.192Z,87.40
2019-03-23T01:37:53.398Z,87.20
2019-03-23T01:40:19.581Z,87.40
2019-03-23T01:42:45.736Z,87.40
2019-03-23T01:45:12.913Z,88.40
2019-03-23T01:47:39.188Z,87.30
2019-03-23T01:50:06.279Z,87.10
2019-03-23T01:52:33.827Z,87.00
2019-03-23T01:54:59.984Z,86.40
2019-03-23T01:57:26.347Z,85.50
2019-03-23T01:59:52.519Z,86.50
2019-03-23T02:02:18.695Z,87.50
2019-03-23T02:04:45.259Z,86.90
2019-03-23T02:07:13.984Z,86.40
2019-03-23T02:09:39.522Z,86.50
2019-03-23T02:12:05.711Z,86.10
2019-03-23T02:14:31.875Z,85.90
2019-03-23T02:16:58.037Z,85.60
2019-03-23T02:19:24.212Z,85.20
2019-03-23T02:21:50.367Z,84.90
2019-03-23T02:24:16.552Z,85.10
2019-03-23T02:26:42.716Z,85.10
2019-03-23T02:29:08.895Z,85.10
2019-03-23T02:31:35.079Z,85.10
2019-03-23T02:34:01.233Z,85.30
2019-03-23T02:36:27.402Z,85.40
2019-03-23T02:38:53.584Z,85.70
2019-03-23T02:41:19.755Z,85.30
2019-03-23T02:43:45.924Z,85.20
2019-03-23T02:46:12.123Z,85.00
2019-03-23T02:48:38.365Z,85.00
2019-03-23T02:51:04.534Z,85.10
2019-03-23T02:53:30.683Z,85.60
2019-03-23T02:55:56.850Z,85.40
2019-03-23T02:58:23.024Z,86.50
2019-03-23T03:00:49.197Z,86.10
2019-03-23T03:03:15.487Z,85.90
2019-03-23T03:05:41.657Z,85.40
2019-03-23T03:08:07.825Z,85.20
2019-03-23T03:10:39.260Z,86.00
2019-03-23T03:13:05.428Z,86.00
2019-03-23T03:15:31.579Z,86.00
2019-03-23T03:17:57.812Z,86.40
2019-03-23T03:20:23.991Z,87.40
2019-03-23T03:22:50.178Z,88.00
2019-03-23T03:25:16.353Z,87.70
2019-03-23T03:27:42.506Z,87.90
2019-03-23T03:30:09.988Z,88.90
2019-03-23T03:32:36.156Z,89.30
2019-03-23T03:35:04.140Z,88.90
2019-03-23T03:37:30.366Z,88.90
2019-03-23T03:39:56.539Z,89.40
2019-03-23T03:42:23.024Z,89.50
2019-03-23T03:44:49.200Z,90.10
2019-03-23T03:47:15.353Z,90.40
2019-03-23T03:49:41.567Z,90.00
2019-03-23T03:52:07.732Z,89.20
2019-03-23T03:54:33.913Z,89.70
2019-03-23T03:57:00.093Z,90.10
2019-03-23T03:59:26.269Z,90.20
2019-03-23T04:01:52.437Z,90.00
2019-03-23T04:04:18.595Z,90.30
2019-03-23T04:06:44.754Z,91.00
2019-03-23T04:09:10.947Z,90.60
2019-03-23T04:11:37.093Z,89.60
2019-03-23T04:14:03.301Z,90.00
2019-03-23T04:16:29.538Z,90.60
2019-03-23T04:18:55.808Z,90.40
2019-03-23T04:21:21.959Z,89.60
2019-03-23T04:23:48.171Z,90.80
2019-03-23T04:26:14.332Z,90.60
2019-03-23T04:28:40.534Z,90.30
2019-03-23T04:31:06.721Z,90.00
2019-03-23T04:33:32.885Z,89.40
2019-03-23T04:35:59.055Z,88.90
2019-03-23T04:38:25.213Z,88.80
2019-03-23T04:40:51.403Z,88.50
2019-03-23T04:43:17.543Z,88.40
2019-03-23T04:45:43.715Z,87.90
2019-03-23T04:48:09.883Z,88.20
2019-03-23T04:50:36.068Z,89.00
2019-03-23T04:53:03.416Z,87.80
2019-03-23T04:55:29.588Z,87.40
2019-03-23T04:57:55.743Z,87.30
2019-03-23T05:00:21.915Z,87.80
2019-03-23T05:02:48.107Z,88.00
2019-03-23T05:05:14.256Z,88.70
2019-03-23T05:07:40.495Z,89.40
2019-03-23T05:10:07.779Z,89.90
2019-03-23T05:12:34.508Z,89.50
2019-03-23T05:15:00.787Z,90.20
2019-03-23T05:17:26.960Z,90.00
2019-03-23T05:19:53.144Z,89.60
2019-03-23T05:22:19.305Z,89.50
2019-03-23T05:24:46.456Z,89.40
2019-03-23T05:27:12.663Z,88.70
2019-03-23T05:29:38.807Z,88.20
2019-03-23T05:32:04.976Z,87.50
2019-03-23T05:34:31.129Z,86.80
2019-03-23T05:36:57.320Z,87.90
2019-03-23T05:39:23.477Z,87.60
2019-03-23T05:41:49.675Z,86.50
2019-03-23T05:44:15.843Z,86.70
2019-03-23T05:46:42.011Z,86.70
2019-03-23T05:49:08.157Z,86.20
2019-03-23T05:51:34.311Z,85.60
2019-03-23T05:54:00.480Z,84.90
2019-03-23T05:56:26.648Z,82.90
2019-03-23T05:58:53.836Z,80.70
2019-03-23T06:01:20.045Z,78.50
2019-03-23T06:03:46.228Z,76.60
2019-03-23T06:06:12.395Z,72.80
2019-03-23T06:08:38.575Z,69.10
2019-03-23T06:11:05.839Z,65.90
2019-03-23T06:13:32.011Z,63.00
2019-03-23T06:15:58.247Z,60.10
2019-03-23T06:18:24.403Z,58.40
2019-03-23T06:20:50.563Z,56.30
2019-03-23T06:23:16.736Z,54.70
2019-03-23T06:25:42.917Z,54.30
2019-03-23T06:28:09.104Z,52.90
2019-03-23T06:30:35.283Z,51.20
2019-03-23T06:33:01.437Z,50.30
2019-03-23T06:35:29.700Z,50.20
2019-03-23T06:37:55.876Z,50.40
2019-03-23T06:40:22.151Z,50.00
2019-03-23T06:42:59.171Z,48.60
2019-03-23T06:45:16.467Z,47.60
2019-03-23T06:47:42.652Z,47.80
2019-03-23T06:50:10.007Z,49.40
2019-03-23T06:52:36.189Z,51.20
2019-03-23T06:55:05.580Z,52.70
2019-03-23T06:57:31.779Z,53.70
2019-03-23T06:59:57.944Z,52.40
2019-03-23T07:02:24.104Z,51.90
2019-03-23T07:04:50.276Z,51.40
2019-03-23T07:07:16.483Z,48.60
2019-03-23T07:09:42.634Z,45.60
2019-03-23T07:12:08.790Z,41.90
2019-03-23T07:14:34.967Z,39.20
2019-03-23T07:17:01.256Z,35.00
2019-03-23T07:19:27.443Z,34.20
2019-03-23T07:21:53.629Z,34.10
2019-03-23T07:24:19.961Z,32.60
2019-03-23T07:26:46.268Z,31.80
2019-03-23T07:29:12.420Z,30.20
2019-03-23T07:31:38.592Z,29.00
2019-03-23T07:34:06.209Z,27.70
2019-03-23T07:36:32.549Z,27.60
2019-03-23T07:38:58.788Z,28.00
2019-03-23T07:41:24.954Z,26.40
2019-03-23T07:43:51.136Z,26.20
2019-03-23T07:46:17.304Z,25.30
2019-03-23T07:48:43.508Z,26.10
2019-03-23T07:51:09.774Z,24.80
2019-03-23T07:53:36.081Z,24.60
2019-03-23T07:56:02.267Z,25.30
2019-03-23T07:58:28.502Z,24.50
2019-03-23T08:00:54.972Z,23.30
2019-03-23T08:03:21.139Z,22.20
2019-03-23T08:05:47.307Z,21.10
2019-03-23T08:08:13.468Z,20.50
2019-03-23T08:10:39.640Z,20.10
2019-03-23T08:13:05.799Z,19.90
2019-03-23T08:15:31.972Z,20.10
2019-03-23T08:17:58.126Z,21.00
2019-03-23T08:20:24.340Z,21.20
2019-03-23T08:22:51.713Z,21.40
2019-03-23T08:25:17.888Z,21.00
2019-03-23T08:27:44.048Z,20.00
2019-03-23T08:30:10.428Z,19.20
2019-03-23T08:32:36.713Z,19.20
2019-03-23T08:35:03.995Z,19.10
2019-03-23T08:37:30.144Z,17.80
2019-03-23T08:39:56.325Z,17.20
2019-03-23T08:42:22.523Z,17.60
2019-03-23T08:44:48.675Z,19.20
2019-03-23T08:47:14.885Z,19.00
2019-03-23T08:49:41.043Z,17.90
2019-03-23T08:52:07.208Z,18.10
2019-03-23T08:54:33.607Z,18.40
2019-03-23T08:56:59.803Z,18.70
2019-03-23T08:59:25.964Z,19.70
2019-03-23T09:01:53.663Z,20.30
2019-03-23T09:04:19.884Z,19.70
2019-03-23T09:06:46.037Z,18.60
2019-03-23T09:09:12.200Z,17.90
2019-03-23T09:11:38.496Z,17.90
2019-03-23T09:14:04.648Z,17.60
2019-03-23T09:16:30.808Z,16.70
2019-03-23T09:18:57.028Z,16.40
2019-03-23T09:21:23.222Z,17.20
2019-03-23T09:23:49.373Z,17.70
2019-03-23T09:26:15.596Z,18.80
2019-03-23T09:28:41.780Z,17.70
2019-03-23T09:31:07.948Z,17.80
2019-03-23T09:33:34.104Z,17.30
2019-03-23T09:36:00.331Z,17.20
2019-03-23T09:38:26.504Z,17.30
2019-03-23T09:40:52.880Z,16.90
2019-03-23T09:43:19.068Z,16.70
2019-03-23T09:45:45.312Z,16.00
2019-03-23T09:48:11.506Z,15.30
2019-03-23T09:50:37.687Z,16.30
2019-03-23T09:53:03.859Z,16.40
2019-03-23T09:55:30.013Z,15.40
2019-03-23T09:57:56.196Z,16.50
2019-03-23T10:00:22.441Z,14.90
2019-03-23T10:02:51.795Z,15.50
2019-03-23T10:05:17.974Z,14.90
2019-03-23T10:07:44.220Z,16.20
2019-03-23T10:10:21.000Z,15.20
2019-03-23T10:12:38.520Z,14.10
2019-03-23T10:15:05.872Z,15.60
2019-03-23T10:17:33.030Z,15.80
2019-03-23T10:19:59.195Z,14.90
2019-03-23T10:22:25.477Z,15.10
2019-03-23T10:24:51.656Z,15.10
2019-03-23T10:27:17.843Z,15.80
2019-03-23T10:29:44.040Z,15.40
2019-03-23T10:32:10.212Z,15.10
2019-03-23T10:34:36.387Z,16.50
2019-03-23T10:37:02.803Z,15.80
2019-03-23T10:39:28.970Z,16.30
2019-03-23T10:41:55.144Z,16.90
2019-03-23T10:44:22.409Z,17.40
2019-03-23T10:46:48.616Z,18.10
2019-03-23T10:49:14.777Z,18.30
2019-03-23T10:51:40.935Z,18.50
2019-03-23T10:54:07.121Z,18.70
2019-03-23T10:56:33.338Z,18.10
2019-03-23T10:58:59.571Z,18.00
2019-03-23T11:01:25.852Z,18.00
2019-03-23T11:03:53.135Z,16.60
2019-03-23T11:06:19.302Z,15.50
2019-03-23T11:08:45.468Z,15.80
2019-03-23T11:11:11.641Z,14.90
2019-03-23T11:13:37.838Z,16.00
2019-03-23T11:16:04.032Z,16.90
2019-03-23T11:18:30.184Z,17.40
2019-03-23T11:20:56.353Z,16.70
2019-03-23T11:23:22.529Z,18.30
2019-03-23T11:25:48.719Z,18.30
2019-03-23T11:28:14.893Z,17.80
2019-03-23T11:30:42.184Z,18.20
2019-03-23T11:33:08.335Z,18.60
2019-03-23T11:35:34.509Z,18.90
2019-03-23T11:38:02.416Z,16.80
2019-03-23T11:40:29.131Z,17.30
2019-03-23T11:42:55.741Z,18.10
2019-03-23T11:45:21.952Z,17.70
2019-03-23T11:47:48.131Z,17.90
2019-03-23T11:50:14.331Z,17.70
2019-03-23T11:52:40.514Z,17.40
2019-03-23T11:55:07.205Z,17.60
2019-03-23T11:57:33.800Z,18.20
2019-03-23T12:00:00.023Z,17.50
2019-03-23T12:02:26.265Z,18.00
2019-03-23T12:04:52.461Z,18.20
2019-03-23T12:07:18.615Z,18.70
2019-03-23T12:09:44.796Z,22.50
2019-03-23T12:12:10.965Z,23.00
2019-03-23T12:14:38.225Z,23.30
2019-03-23T12:17:04.385Z,25.20
2019-03-23T12:19:30.577Z,25.90
2019-03-23T12:21:56.826Z,26.60
2019-03-23T12:24:23.084Z,25.80
2019-03-23T12:26:49.271Z,27.00
2019-03-23T12:29:15.496Z,25.90
2019-03-23T12:31:41.649Z,29.30
2019-03-23T12:34:08.278Z,28.60
2019-03-23T12:36:34.853Z,28.50
2019-03-23T12:39:01.040Z,27.00
2019-03-23T12:41:27.255Z,28.00
2019-03-23T12:43:53.407Z,27.30
2019-03-23T12:46:19.591Z,28.60
2019-03-23T12:48:45.753Z,27.70
2019-03-23T12:51:11.931Z,27.10
2019-03-23T12:53:38.104Z,27.30
2019-03-23T12:56:04.271Z,29.70
2019-03-23T12:58:30.749Z,29.80
2019-03-23T13:00:56.936Z,28.20
2019-03-23T13:03:23.116Z,29.20
2019-03-23T13:05:49.335Z,29.30
2019-03-23T13:08:15.487Z,29.20
2019-03-23T13:10:41.675Z,28.20
2019-03-23T13:13:07.951Z,27.90
2019-03-23T13:15:34.095Z,28.00
2019-03-23T13:18:02.975Z,29.20
2019-03-23T13:20:28.966Z,29.40
2019-03-23T13:22:55.238Z,29.40
2019-03-23T13:25:21.398Z,29.80
2019-03-23T13:27:47.576Z,29.30
2019-03-23T13:30:16.336Z,29.70
2019-03-23T13:32:42.614Z,28.40
2019-03-23T13:35:09.620Z,29.00
2019-03-23T13:37:35.792Z,29.90
2019-03-23T13:40:05.655Z,29.30
2019-03-23T13:42:31.831Z,29.30
2019-03-23T13:44:57.988Z,28.00
2019-03-23T13:47:24.176Z,28.60
2019-03-23T13:49:50.373Z,29.50
2019-03-23T13:52:16.593Z,29.20
2019-03-23T13:54:42.787Z,27.90
2019-03-23T13:57:08.943Z,28.20
2019-03-23T13:59:35.110Z,28.00
2019-03-23T14:02:01.272Z,28.60
2019-03-23T14:04:27.452Z,28.60
2019-03-23T14:06:53.599Z,28.90
2019-03-23T14:09:19.774Z,29.70
2019-03-23T14:11:54.701Z,30.00
2019-03-23T14:14:14.013Z,29.80
2019-03-23T14:16:40.227Z,29.40
2019-03-23T14:19:06.392Z,30.00
2019-03-23T14:21:32.605Z,29.70
2019-03-23T14:23:58.782Z,29.10
2019-03-23T14:26:24.955Z,29.50
2019-03-23T14:28:51.151Z,29.20
2019-03-23T14:31:17.313Z,29.40
2019-03-23T14:33:43.484Z,30.10
2019-03-23T14:36:09.727Z,30.20
2019-03-23T14:38:35.997Z,29.60
2019-03-23T14:41:02.177Z,29.20
2019-03-23T14:43:28.445Z,29.50
2019-03-23T14:45:54.632Z,29.20
2019-03-23T14:48:20.827Z,29.40
2019-03-23T14:50:46.999Z,29.00
2019-03-23T14:53:13.147Z,29.00
2019-03-23T14:55:39.348Z,28.90
2019-03-23T14:58:05.521Z,29.70
2019-03-23T15:00:32.308Z,29.00
2019-03-23T15:02:58.452Z,30.70
2019-03-23T15:05:24.651Z,29.30
2019-03-23T15:07:50.836Z,29.80
2019-03-23T15:10:16.985Z,29.10
2019-03-23T15:12:43.137Z,30.80
2019-03-23T15:15:09.414Z,28.80
2019-03-23T15:17:35.571Z,29.70
2019-03-23T15:20:04.072Z,29.80
2019-03-23T15:22:30.567Z,30.20
2019-03-23T15:24:56.725Z,29.80
2019-03-23T15:27:22.879Z,29.80
2019-03-23T15:29:49.049Z,29.90
2019-03-23T15:32:16.199Z,29.10
2019-03-23T15:34:42.402Z,29.30
2019-03-23T15:37:08.563Z,29.60
2019-03-23T15:39:34.727Z,29.30
2019-03-23T15:42:00.908Z,30.10
2019-03-23T15:44:27.062Z,29.80
2019-03-23T15:46:53.216Z,28.90
2019-03-23T15:49:19.401Z,30.10
2019-03-23T15:51:45.597Z,30.30
2019-03-23T15:54:11.821Z,29.70
2019-03-23T15:56:38.036Z,30.80
2019-03-23T15:59:04.256Z,32.70
2019-03-23T16:01:30.437Z,33.20
2019-03-23T16:03:56.600Z,33.60
2019-03-23T16:06:22.784Z,33.00
2019-03-23T16:08:48.943Z,33.50
2019-03-23T16:11:15.154Z,33.40
2019-03-23T16:13:42.458Z,33.00
2019-03-23T16:16:09.269Z,34.60
2019-03-23T16:18:35.483Z,33.80
2019-03-23T16:21:01.647Z,34.30
2019-03-23T16:23:27.821Z,34.80
2019-03-23T16:25:54.004Z,34.30
2019-03-23T16:28:20.158Z,35.00
2019-03-23T16:30:46.351Z,34.80
2019-03-23T16:33:12.504Z,35.10
2019-03-23T16:35:38.689Z,35.30
2019-03-23T16:38:04.868Z,35.90
2019-03-23T16:40:31.039Z,35.50
2019-03-23T16:42:57.195Z,35.10
2019-03-23T16:45:23.407Z,35.60
2019-03-23T16:47:49.665Z,35.80
2019-03-23T16:50:15.820Z,36.90
2019-03-23T16:52:41.991Z,36.70
2019-03-23T16:55:08.951Z,37.80
2019-03-23T16:57:36.413Z,37.90
2019-03-23T17:00:08.991Z,37.90
2019-03-23T17:02:35.339Z,38.00
2019-03-23T17:05:01.525Z,38.10
2019-03-23T17:07:27.818Z,38.20
2019-03-23T17:09:53.965Z,38.40
2019-03-23T17:12:20.208Z,39.00
2019-03-23T17:14:46.363Z,39.00
2019-03-23T17:17:12.836Z,39.30
2019-03-23T17:19:39.027Z,39.40
2019-03-23T17:22:05.211Z,39.70
2019-03-23T17:24:31.405Z,40.30
2019-03-23T17:26:57.578Z,40.80
2019-03-23T17:29:23.736Z,41.00
2019-03-23T17:31:49.928Z,41.20
2019-03-23T17:34:16.081Z,41.60
2019-03-23T17:36:42.596Z,41.70
2019-03-23T17:39:08.767Z,42.10
2019-03-23T17:41:35.128Z,42.80
2019-03-23T17:44:02.392Z,43.20
2019-03-23T17:46:28.586Z,43.60
2019-03-23T17:48:54.755Z,44.00
2019-03-23T17:51:20.928Z,44.00
2019-03-23T17:53:47.087Z,44.20
2019-03-23T17:56:13.239Z,44.60
2019-03-23T17:58:39.418Z,44.80
2019-03-23T18:01:06.491Z,45.30
2019-03-23T18:03:32.648Z,45.50
2019-03-23T18:05:58.869Z,45.70
2019-03-23T18:08:25.124Z,45.90
2019-03-23T18:10:51.329Z,46.50
2019-03-23T18:13:17.480Z,46.70
2019-03-23T18:15:43.666Z,46.90
2019-03-23T18:18:09.915Z,47.50
2019-03-23T18:20:36.088Z,47.70
2019-03-23T18:23:02.547Z,47.80
2019-03-23T18:25:28.716Z,48.10
2019-03-23T18:27:54.868Z,49.10
2019-03-23T18:30:36.931Z,49.80
2019-03-23T18:33:04.307Z,50.30
2019-03-23T18:35:30.493Z,51.40
2019-03-23T18:37:56.692Z,51.50
2019-03-23T18:40:22.950Z,51.80
2019-03-23T18:42:49.127Z,52.50
2019-03-23T18:45:15.296Z,53.00
2019-03-23T18:47:41.451Z,53.60
2019-03-23T18:50:07.819Z,54.10
2019-03-23T18:52:33.979Z,54.80
2019-03-23T18:55:00.162Z,54.80
2019-03-23T18:57:26.314Z,55.50
2019-03-23T18:59:52.491Z,56.00
2019-03-23T19:02:18.640Z,56.60
2019-03-23T19:04:57.845Z,57.30
2019-03-23T19:07:23.997Z,57.80
2019-03-23T19:09:50.503Z,58.30
2019-03-23T19:12:16.661Z,58.30
2019-03-23T19:14:42.821Z,59.10
2019-03-23T19:17:10.082Z,59.20
2019-03-23T19:19:36.245Z,59.40
2019-03-23T19:22:02.521Z,60.00
2019-03-23T19:24:28.992Z,60.70
2019-03-23T19:26:55.147Z,61.40
2019-03-23T19:29:21.504Z,61.90
2019-03-23T19:31:47.680Z,61.90
2019-03-23T19:34:13.911Z,62.90
2019-03-23T19:36:40.085Z,63.10
2019-03-23T19:39:06.835Z,62.60
2019-03-23T19:41:33.009Z,63.60
2019-03-23T19:43:59.165Z,64.00
2019-03-23T19:46:25.364Z,64.20
2019-03-23T19:48:51.519Z,64.60
2019-03-23T19:51:17.732Z,64.80
2019-03-23T19:53:43.888Z,65.70
2019-03-23T19:56:11.149Z,65.90
2019-03-23T19:58:37.323Z,66.70
2019-03-23T20:01:03.836Z,66.50
2019-03-23T20:03:30.021Z,67.30
2019-03-23T20:05:56.202Z,68.80
2019-03-23T20:08:22.359Z,70.70
2019-03-23T20:10:48.532Z,71.10
2019-03-23T20:13:14.672Z,70.90
2019-03-23T20:15:40.839Z,70.30
2019-03-23T20:18:07.047Z,70.70
2019-03-23T20:20:33.244Z,70.40
2019-03-23T20:22:59.423Z,71.80
2019-03-23T20:25:25.605Z,73.40
2019-03-23T20:27:51.754Z,72.80
2019-03-23T20:30:18.380Z,72.40
2019-03-23T20:32:44.733Z,72.90
2019-03-23T20:35:11.231Z,73.60
2019-03-23T20:37:37.500Z,73.60
2019-03-23T20:40:05.309Z,74.20
2019-03-23T20:42:31.689Z,74.70
2019-03-23T20:44:57.931Z,75.10
2019-03-23T20:47:24.117Z,75.30
2019-03-23T20:49:51.395Z,75.60
2019-03-23T20:52:17.580Z,75.70
2019-03-23T20:54:43.741Z,75.50
2019-03-23T20:57:09.923Z,75.10
2019-03-23T20:59:36.084Z,76.10
2019-03-23T21:02:02.328Z,76.10
2019-03-23T21:04:28.613Z,76.40
2019-03-23T21:06:54.826Z,76.70
2019-03-23T21:09:20.971Z,77.10
2019-03-23T21:11:47.149Z,77.50
2019-03-23T21:14:20.090Z,77.90
2019-03-23T21:16:42.495Z,78.10
2019-03-23T21:19:08.647Z,78.10
2019-03-23T21:21:35.172Z,78.00
2019-03-23T21:24:01.437Z,78.40
2019-03-23T21:26:27.615Z,78.70
2019-03-23T21:28:53.779Z,79.00
2019-03-23T21:31:19.939Z,79.60
2019-03-23T21:33:46.104Z,79.80
2019-03-23T21:36:12.292Z,80.20
2019-03-23T21:38:38.551Z,80.80
2019-03-23T21:41:04.737Z,81.10
2019-03-23T21:43:30.912Z,81.00
2019-03-23T21:45:57.104Z,81.40
2019-03-23T21:48:23.261Z,81.30
2019-03-23T21:50:49.438Z,81.20
2019-03-23T21:53:15.593Z,81.10
2019-03-23T21:55:41.767Z,81.10
2019-03-23T21:58:07.941Z,81.10
2019-03-23T22:00:34.428Z,81.10
2019-03-23T22:03:01.004Z,81.40
2019-03-23T22:05:27.161Z,81.70
2019-03-23T22:07:53.333Z,81.40
2019-03-23T22:10:19.492Z,81.60
2019-03-23T22:12:45.659Z,81.20
2019-03-23T22:15:12.568Z,81.20
2019-03-23T22:17:38.736Z,81.50
2019-03-23T22:20:06.899Z,81.60
2019-03-23T22:22:33.093Z,81.90
2019-03-23T22:25:00.328Z,82.20
2019-03-23T22:27:26.507Z,82.40
2019-03-23T22:29:52.683Z,83.00
2019-03-23T22:32:18.860Z,82.90
2019-03-23T22:34:45.020Z,82.70
2019-03-23T22:37:12.408Z,82.10
2019-03-23T22:39:38.560Z,83.30
2019-03-23T22:42:04.748Z,83.60
2019-03-23T22:44:30.903Z,83.80
2019-03-23T22:46:57.082Z,83.60
2019-03-23T22:49:23.293Z,84.10
2019-03-23T22:51:49.560Z,83.00
2019-03-23T22:54:16.771Z,83.30
2019-03-23T22:56:42.932Z,83.80
2019-03-23T22:59:09.087Z,84.00
2019-03-23T23:01:35.372Z,84.00
2019-03-23T23:04:01.527Z,84.00
2019-03-23T23:06:28.784Z,83.60
2019-03-23T23:08:54.964Z,83.60
2019-03-23T23:11:21.112Z,84.40
2019-03-23T23:13:47.374Z,84.50
2019-03-23T23:16:13.588Z,84.50
2019-03-23T23:18:39.739Z,84.50
2019-03-23T23:21:05.896Z,85.00
2019-03-23T23:23:32.085Z,85.30
2019-03-23T23:25:58.231Z,85.80
2019-03-23T23:28:24.501Z,85.00
2019-03-23T23:30:50.725Z,84.80
2019-03-23T23:33:17.015Z,84.80
2019-03-23T23:35:43.371Z,84.90
2019-03-23T23:38:09.544Z,85.30
2019-03-23T23:40:36.808Z,85.40
2019-03-23T23:43:03.103Z,85.70
2019-03-23T23:45:29.271Z,85.50
2019-03-23T23:47:55.758Z,85.30
2019-03-23T23:50:21.903Z,86.50
2019-03-23T23:52:48.071Z,85.70
2019-03-23T23:55:14.224Z,85.70
2019-03-23T23:57:40.400Z,86.70
